createdAt,value
2017-10-01T00:00:51.012Z,17.60
2017-10-01T00:03:18.498Z,17.60
2017-10-01T00:05:46.762Z,17.60
2017-10-01T00:08:14.258Z,17.50
2017-10-01T00:10:42.501Z,17.60
2017-10-01T00:13:09.989Z,17.50
2017-10-01T00:15:38.236Z,17.60
2017-10-01T00:18:05.729Z,17.50
2017-10-01T00:20:33.231Z,17.50
2017-10-01T00:23:00.768Z,17.50
2017-10-01T00:25:28.254Z,17.50
2017-10-01T00:27:55.734Z,17.50
2017-10-01T00:30:23.209Z,17.50
2017-10-01T00:32:51.459Z,17.40
2017-10-01T00:35:18.939Z,17.40
2017-10-01T00:37:47.193Z,17.40
2017-10-01T00:40:14.677Z,17.40
2017-10-01T00:42:42.934Z,17.50
2017-10-01T00:45:10.417Z,17.40
2017-10-01T00:47:38.672Z,17.50
2017-10-01T00:50:06.153Z,17.50
2017-10-01T00:52:34.411Z,17.50
2017-10-01T00:55:01.903Z,17.50
2017-10-01T00:57:29.407Z,17.40
2017-10-01T00:59:56.884Z,17.50
2017-10-01T01:02:24.366Z,17.40
2017-10-01T01:04:52.609Z,17.30
2017-10-01T01:07:20.096Z,17.20
2017-10-01T01:09:48.343Z,17.20
2017-10-01T01:12:15.817Z,17.20
2017-10-01T01:14:43.302Z,17.20
2017-10-01T01:17:11.610Z,17.20
2017-10-01T01:19:39.112Z,17.20
2017-10-01T01:22:06.598Z,17.20
2017-10-01T01:24:34.854Z,17.20
2017-10-01T01:27:03.113Z,17.20
2017-10-01T01:29:30.607Z,17.20
2017-10-01T01:31:58.854Z,17.10
2017-10-01T01:34:26.342Z,17.10
2017-10-01T01:36:54.590Z,17.20
2017-10-01T01:39:22.065Z,17.20
2017-10-01T01:41:49.550Z,17.50
2017-10-01T01:44:17.808Z,17.60
2017-10-01T01:46:46.057Z,17.30
2017-10-01T01:49:13.581Z,17.30
2017-10-01T01:51:41.076Z,17.20
2017-10-01T01:54:08.562Z,17.20
2017-10-01T01:56:36.825Z,17.10
2017-10-01T01:59:04.315Z,17.00
2017-10-01T02:01:32.567Z,17.10
2017-10-01T02:04:00.055Z,17.10
2017-10-01T02:06:27.546Z,17.10
2017-10-01T02:08:55.045Z,17.10
2017-10-01T02:11:22.525Z,17.10
2017-10-01T02:13:50.773Z,17.20
2017-10-01T02:16:18.268Z,17.10
2017-10-01T02:18:45.745Z,17.10
2017-10-01T02:21:13.243Z,17.10
2017-10-01T02:23:40.730Z,17.10
2017-10-01T02:26:08.982Z,17.10
2017-10-01T02:28:36.471Z,17.00
2017-10-01T02:31:04.726Z,17.10
2017-10-01T02:33:32.217Z,17.10
2017-10-01T02:35:59.698Z,17.00
2017-10-01T02:38:27.179Z,17.10
2017-10-01T02:40:54.657Z,17.00
2017-10-01T02:43:22.143Z,17.10
2017-10-01T02:45:50.394Z,17.10
2017-10-01T02:48:17.896Z,17.10
2017-10-01T02:50:45.637Z,17.10
2017-10-01T02:53:13.909Z,17.10
2017-10-01T02:55:42.171Z,17.00
2017-10-01T02:58:09.662Z,17.00
2017-10-01T03:00:37.924Z,17.00
2017-10-01T03:03:06.185Z,17.00
2017-10-01T03:05:33.662Z,16.90
2017-10-01T03:08:01.909Z,17.40
2017-10-01T03:10:29.395Z,17.40
2017-10-01T03:12:57.652Z,17.10
2017-10-01T03:15:25.126Z,17.10
2017-10-01T03:17:53.382Z,17.10
2017-10-01T03:20:20.880Z,17.00
2017-10-01T03:22:48.392Z,17.00
2017-10-01T03:25:15.886Z,16.90
2017-10-01T03:27:44.139Z,17.00
2017-10-01T03:30:11.627Z,16.90
2017-10-01T03:32:39.896Z,17.10
2017-10-01T03:35:08.155Z,17.00
2017-10-01T03:37:35.646Z,17.00
2017-10-01T03:40:03.890Z,16.90
2017-10-01T03:42:31.375Z,16.90
2017-10-01T03:44:59.635Z,16.80
2017-10-01T03:47:27.110Z,16.80
2017-10-01T03:49:55.363Z,16.80
2017-10-01T03:52:22.846Z,16.70
2017-10-01T03:54:51.095Z,16.80
2017-10-01T03:57:30.352Z,16.70
2017-10-01T03:59:58.626Z,16.70
2017-10-01T04:02:26.122Z,16.70
2017-10-01T04:04:53.615Z,16.70
2017-10-01T04:07:21.119Z,16.70
2017-10-01T04:09:49.366Z,16.60
2017-10-01T04:12:16.841Z,16.60
2017-10-01T04:14:45.092Z,16.60
2017-10-01T04:17:12.573Z,16.50
2017-10-01T04:19:40.063Z,16.60
2017-10-01T04:22:07.550Z,16.60
2017-10-01T04:24:35.035Z,16.60
2017-10-01T04:27:02.519Z,16.60
2017-10-01T04:29:30.777Z,16.60
2017-10-01T04:31:58.270Z,16.60
2017-10-01T04:34:25.754Z,16.60
2017-10-01T04:36:53.242Z,16.60
2017-10-01T04:39:20.738Z,16.60
2017-10-01T04:41:48.990Z,16.50
2017-10-01T04:44:16.479Z,16.50
2017-10-01T04:46:44.731Z,16.60
2017-10-01T04:49:12.233Z,16.60
2017-10-01T04:51:39.720Z,16.60
2017-10-01T04:54:07.209Z,16.60
2017-10-01T04:56:34.701Z,16.50
2017-10-01T04:59:02.179Z,16.50
2017-10-01T05:01:29.671Z,16.60
2017-10-01T05:03:57.153Z,16.60
2017-10-01T05:06:25.401Z,16.70
2017-10-01T05:08:52.881Z,16.60
2017-10-01T05:11:20.369Z,16.60
2017-10-01T05:13:47.854Z,16.50
2017-10-01T05:16:15.333Z,16.40
2017-10-01T05:18:42.819Z,16.40
2017-10-01T05:21:10.308Z,16.30
2017-10-01T05:23:37.796Z,16.40
2017-10-01T05:26:05.293Z,16.40
2017-10-01T05:28:33.539Z,16.40
2017-10-01T05:31:01.025Z,16.30
2017-10-01T05:33:29.270Z,16.30
2017-10-01T05:35:56.775Z,16.30
2017-10-01T05:38:25.021Z,16.30
2017-10-01T05:40:52.510Z,16.30
2017-10-01T05:43:20.758Z,16.30
2017-10-01T05:45:48.248Z,16.30
2017-10-01T05:48:16.510Z,16.20
2017-10-01T05:50:43.997Z,16.20
2017-10-01T05:53:12.256Z,16.20
2017-10-01T05:55:40.516Z,16.30
2017-10-01T05:58:08.006Z,16.20
2017-10-01T06:00:36.777Z,16.30
2017-10-01T06:03:05.034Z,16.30
2017-10-01T06:05:32.514Z,16.30
2017-10-01T06:08:00.770Z,16.30
2017-10-01T06:10:28.255Z,16.20
2017-10-01T06:12:56.501Z,16.50
2017-10-01T06:15:23.991Z,16.40
2017-10-01T06:17:52.250Z,17.20
2017-10-01T06:20:19.744Z,17.20
2017-10-01T06:22:47.229Z,17.10
2017-10-01T06:25:14.716Z,16.80
2017-10-01T06:27:42.207Z,16.60
2017-10-01T06:30:10.483Z,16.40
2017-10-01T06:32:38.735Z,16.40
2017-10-01T06:35:06.218Z,16.30
2017-10-01T06:37:34.461Z,16.60
2017-10-01T06:40:01.951Z,16.60
2017-10-01T06:42:30.202Z,16.70
2017-10-01T06:44:57.687Z,16.70
2017-10-01T06:47:25.945Z,17.10
2017-10-01T06:49:53.419Z,17.00
2017-10-01T06:52:20.902Z,17.10
2017-10-01T06:54:48.386Z,16.90
2017-10-01T06:57:15.865Z,16.80
2017-10-01T06:59:43.360Z,16.70
2017-10-01T07:02:11.619Z,17.00
2017-10-01T07:04:39.108Z,16.90
2017-10-01T07:07:07.375Z,16.90
2017-10-01T07:09:35.636Z,16.80
2017-10-01T07:12:03.118Z,16.80
2017-10-01T07:14:31.379Z,16.70
2017-10-01T07:16:59.629Z,16.70
2017-10-01T07:19:27.113Z,16.70
2017-10-01T07:21:54.598Z,16.70
2017-10-01T07:24:22.087Z,16.60
2017-10-01T07:26:49.585Z,16.80
2017-10-01T07:29:17.126Z,17.50
2017-10-01T07:31:44.605Z,17.90
2017-10-01T07:34:12.090Z,17.60
2017-10-01T07:36:39.583Z,17.90
2017-10-01T07:39:07.075Z,17.40
2017-10-01T07:41:34.549Z,17.20
2017-10-01T07:44:02.866Z,16.90
2017-10-01T07:46:30.362Z,16.90
2017-10-01T07:48:57.854Z,17.80
2017-10-01T07:51:26.113Z,17.30
2017-10-01T07:53:53.599Z,17.20
2017-10-01T07:56:21.859Z,17.30
2017-10-01T07:58:50.136Z,17.00
2017-10-01T08:01:18.453Z,17.10
2017-10-01T08:03:45.933Z,17.10
2017-10-01T08:06:13.410Z,17.10
2017-10-01T08:08:40.930Z,16.80
2017-10-01T08:11:08.405Z,17.10
2017-10-01T08:13:35.896Z,16.80
2017-10-01T08:16:03.384Z,16.60
2017-10-01T08:18:31.629Z,16.20
2017-10-01T08:20:59.118Z,16.20
2017-10-01T08:23:27.368Z,16.60
2017-10-01T08:25:54.852Z,16.50
2017-10-01T08:28:23.106Z,16.90
2017-10-01T08:30:50.586Z,16.90
2017-10-01T08:33:18.829Z,17.20
2017-10-01T08:35:46.332Z,17.20
2017-10-01T08:38:13.910Z,16.90
2017-10-01T08:40:41.408Z,16.60
2017-10-01T08:43:08.902Z,16.50
2017-10-01T08:45:37.145Z,16.40
2017-10-01T08:48:04.641Z,16.40
2017-10-01T08:50:32.137Z,16.70
2017-10-01T08:52:59.632Z,16.70
2017-10-01T08:55:27.133Z,16.60
2017-10-01T08:57:54.632Z,16.50
2017-10-01T09:00:22.117Z,16.70
2017-10-01T09:02:49.617Z,16.80
2017-10-01T09:05:17.183Z,16.70
2017-10-01T09:07:44.698Z,16.60
2017-10-01T09:10:13.263Z,16.50
2017-10-01T09:12:41.530Z,16.40
2017-10-01T09:15:09.023Z,16.40
2017-10-01T09:17:37.278Z,16.80
2017-10-01T09:20:04.776Z,16.80
2017-10-01T09:22:32.267Z,17.20
2017-10-01T09:24:59.759Z,17.30
2017-10-01T09:27:27.257Z,17.40
2017-10-01T09:29:54.759Z,17.40
2017-10-01T09:32:22.250Z,17.80
2017-10-01T09:34:50.503Z,17.70
2017-10-01T09:37:17.999Z,17.70
2017-10-01T09:39:46.286Z,17.20
2017-10-01T09:42:13.817Z,17.20
2017-10-01T09:44:42.074Z,16.30
2017-10-01T09:47:09.557Z,16.20
2017-10-01T09:49:37.055Z,16.30
2017-10-01T09:52:04.552Z,16.60
2017-10-01T09:54:32.052Z,17.00
2017-10-01T09:57:00.310Z,17.10
2017-10-01T09:59:27.803Z,17.00
2017-10-01T10:01:55.311Z,16.80
2017-10-01T10:04:22.794Z,16.90
2017-10-01T10:06:51.050Z,16.90
2017-10-01T10:09:18.540Z,16.90
2017-10-01T10:11:46.814Z,17.00
2017-10-01T10:14:15.075Z,17.10
2017-10-01T10:16:42.556Z,17.00
2017-10-01T10:19:10.818Z,16.90
2017-10-01T10:21:39.092Z,17.40
2017-10-01T10:24:07.382Z,17.30
2017-10-01T10:26:35.624Z,17.30
2017-10-01T10:29:03.108Z,17.30
2017-10-01T10:31:31.366Z,17.20
2017-10-01T10:33:58.855Z,17.20
2017-10-01T10:36:27.114Z,17.40
2017-10-01T10:38:54.628Z,17.40
2017-10-01T10:41:22.110Z,17.10
2017-10-01T10:43:49.588Z,16.80
2017-10-01T10:46:17.845Z,17.20
2017-10-01T10:48:45.340Z,17.20
2017-10-01T10:51:13.591Z,17.90
2017-10-01T10:53:41.085Z,17.90
2017-10-01T10:56:09.367Z,18.40
2017-10-01T10:58:37.626Z,18.20
2017-10-01T11:01:05.887Z,18.00
2017-10-01T11:03:33.399Z,17.90
2017-10-01T11:06:00.891Z,18.30
2017-10-01T11:08:28.381Z,17.60
2017-10-01T11:10:56.638Z,17.90
2017-10-01T11:13:24.901Z,17.60
2017-10-01T11:15:52.396Z,17.50
2017-10-01T11:18:20.646Z,17.40
2017-10-01T11:20:48.124Z,17.40
2017-10-01T11:23:16.381Z,17.60
2017-10-01T11:25:43.860Z,17.50
2017-10-01T11:28:11.342Z,17.80
2017-10-01T11:30:39.644Z,17.90
2017-10-01T11:33:07.151Z,17.90
2017-10-01T11:35:34.635Z,17.60
2017-10-01T11:38:02.890Z,17.90
2017-10-01T11:40:31.160Z,17.50
2017-10-01T11:42:58.649Z,17.40
2017-10-01T11:45:26.909Z,17.20
2017-10-01T11:47:55.166Z,17.50
2017-10-01T11:50:22.649Z,17.50
2017-10-01T11:52:50.889Z,17.20
2017-10-01T11:55:18.365Z,17.20
2017-10-01T11:57:45.855Z,16.90
2017-10-01T12:00:14.147Z,17.00
2017-10-01T12:02:41.625Z,16.90
2017-10-01T12:05:09.122Z,16.90
2017-10-01T12:07:36.604Z,17.30
2017-10-01T12:10:04.870Z,17.50
2017-10-01T12:12:33.139Z,17.30
2017-10-01T12:15:00.687Z,17.30
2017-10-01T12:17:28.194Z,17.20
2017-10-01T12:19:55.675Z,17.30
2017-10-01T12:22:23.153Z,17.20
2017-10-01T12:24:50.648Z,17.10
2017-10-01T12:27:18.898Z,17.10
2017-10-01T12:29:46.411Z,17.00
2017-10-01T12:32:13.898Z,17.20
2017-10-01T12:34:41.397Z,17.20
2017-10-01T12:37:09.658Z,17.20
2017-10-01T12:39:37.137Z,17.10
2017-10-01T12:42:05.394Z,17.10
2017-10-01T12:44:35.877Z,17.50
2017-10-01T12:47:03.361Z,17.50
2017-10-01T12:49:32.310Z,17.50
2017-10-01T12:51:59.884Z,17.40
2017-10-01T12:54:27.383Z,17.50
2017-10-01T12:56:54.882Z,17.50
2017-10-01T12:59:23.134Z,17.50
2017-10-01T13:01:56.382Z,17.50
2017-10-01T13:04:23.872Z,17.30
2017-10-01T13:06:51.367Z,17.50
2017-10-01T13:09:19.651Z,17.40
2017-10-01T13:11:47.906Z,17.40
2017-10-01T13:14:15.394Z,17.40
2017-10-01T13:16:43.659Z,17.30
2017-10-01T13:19:11.905Z,17.60
2017-10-01T13:21:39.390Z,17.50
2017-10-01T13:24:07.655Z,17.70
2017-10-01T13:26:35.143Z,17.60
2017-10-01T13:29:03.403Z,17.70
2017-10-01T13:31:31.662Z,17.80
2017-10-01T13:33:59.147Z,17.80
2017-10-01T13:36:27.394Z,17.90
2017-10-01T13:38:54.882Z,17.90
2017-10-01T13:41:23.130Z,17.50
2017-10-01T13:43:50.618Z,17.50
2017-10-01T13:46:18.858Z,17.40
2017-10-01T13:48:46.351Z,17.40
2017-10-01T13:51:14.603Z,17.90
2017-10-01T13:53:42.076Z,17.90
2017-10-01T13:56:10.325Z,17.90
2017-10-01T13:58:37.804Z,17.90
2017-10-01T14:01:05.300Z,18.10
2017-10-01T14:03:32.820Z,17.90
2017-10-01T14:06:00.310Z,18.00
2017-10-01T14:08:28.556Z,17.80
2017-10-01T14:10:56.042Z,17.70
2017-10-01T14:13:24.280Z,18.00
2017-10-01T14:15:51.833Z,18.00
2017-10-01T14:18:19.315Z,18.00
2017-10-01T14:20:46.797Z,17.90
2017-10-01T14:23:15.059Z,17.70
2017-10-01T14:25:43.319Z,17.70
2017-10-01T14:28:10.806Z,17.60
2017-10-01T14:30:44.826Z,17.80
2017-10-01T14:33:13.092Z,17.90
2017-10-01T14:35:41.348Z,17.90
2017-10-01T14:38:10.348Z,17.80
2017-10-01T14:40:38.606Z,17.70
2017-10-01T14:43:06.102Z,17.60
2017-10-01T14:45:34.350Z,17.50
2017-10-01T14:48:01.835Z,17.50
2017-10-01T14:50:30.088Z,17.70
2017-10-01T14:52:58.361Z,17.60
2017-10-01T14:55:25.878Z,17.50
2017-10-01T14:57:53.381Z,17.80
2017-10-01T15:00:20.904Z,17.60
2017-10-01T15:02:48.390Z,17.80
2017-10-01T15:05:15.883Z,17.80
2017-10-01T15:07:44.140Z,17.60
2017-10-01T15:10:11.631Z,17.50
2017-10-01T15:12:39.882Z,17.40
2017-10-01T15:15:07.363Z,17.40
2017-10-01T15:17:35.626Z,17.40
2017-10-01T15:20:03.873Z,17.50
2017-10-01T15:22:31.349Z,17.50
2017-10-01T15:24:58.847Z,17.40
2017-10-01T15:27:26.335Z,17.50
2017-10-01T15:29:53.822Z,17.50
2017-10-01T15:32:21.302Z,17.40
2017-10-01T15:34:49.563Z,17.50
2017-10-01T15:37:17.064Z,17.50
2017-10-01T15:39:44.550Z,17.50
2017-10-01T15:42:12.033Z,17.30
2017-10-01T15:44:39.525Z,17.30
2017-10-01T15:47:07.791Z,17.30
2017-10-01T15:49:36.058Z,17.30
2017-10-01T15:52:03.548Z,17.30
2017-10-01T15:54:31.047Z,17.50
2017-10-01T15:56:58.534Z,17.30
2017-10-01T15:59:26.019Z,17.30
2017-10-01T16:01:54.273Z,17.30
2017-10-01T16:04:21.756Z,17.30
2017-10-01T16:06:50.014Z,17.50
2017-10-01T16:09:17.509Z,17.40
2017-10-01T16:11:44.997Z,17.40
2017-10-01T16:14:12.497Z,17.30
2017-10-01T16:16:40.752Z,17.20
2017-10-01T16:19:08.242Z,17.10
2017-10-01T16:21:36.495Z,17.10
2017-10-01T16:24:03.987Z,17.00
2017-10-01T16:26:31.474Z,17.00
2017-10-01T16:28:58.974Z,17.10
2017-10-01T16:31:26.463Z,17.10
2017-10-01T16:33:54.719Z,17.00
2017-10-01T16:36:22.974Z,16.90
2017-10-01T16:38:50.458Z,16.80
2017-10-01T16:41:17.938Z,16.80
2017-10-01T16:43:45.425Z,16.80
2017-10-01T16:46:12.924Z,16.80
2017-10-01T16:48:40.415Z,16.90
2017-10-01T16:51:07.897Z,16.80
2017-10-01T16:53:35.404Z,16.80
2017-10-01T16:56:03.665Z,17.00
2017-10-01T16:58:31.927Z,16.90
2017-10-01T17:00:59.422Z,16.80
2017-10-01T17:03:27.677Z,16.80
2017-10-01T17:05:55.161Z,16.70
2017-10-01T17:08:23.409Z,16.70
2017-10-01T17:10:50.896Z,16.70
2017-10-01T17:13:19.146Z,16.60
2017-10-01T17:15:46.630Z,16.60
2017-10-01T17:18:14.886Z,16.70
2017-10-01T17:20:42.381Z,16.70
2017-10-01T17:23:10.639Z,16.60
2017-10-01T17:25:38.895Z,16.60
2017-10-01T17:28:06.406Z,16.60
2017-10-01T17:30:33.914Z,16.60
2017-10-01T17:33:01.402Z,16.70
2017-10-01T17:35:29.650Z,16.60
2017-10-01T17:37:57.137Z,16.50
2017-10-01T17:40:25.398Z,16.50
2017-10-01T17:42:52.880Z,16.50
2017-10-01T17:45:20.380Z,16.50
2017-10-01T17:47:47.943Z,16.50
2017-10-01T17:50:15.425Z,16.50
2017-10-01T17:52:42.918Z,16.40
2017-10-01T17:55:11.180Z,16.50
2017-10-01T17:57:39.463Z,16.50
2017-10-01T18:00:07.726Z,16.50
2017-10-01T18:02:35.323Z,16.40
2017-10-01T18:05:02.814Z,16.50
2017-10-01T18:07:30.318Z,16.50
2017-10-01T18:09:58.588Z,16.60
2017-10-01T18:12:26.874Z,16.60
2017-10-01T18:14:55.137Z,16.60
2017-10-01T18:17:22.609Z,16.50
2017-10-01T18:19:50.877Z,16.60
2017-10-01T18:22:19.142Z,16.60
2017-10-01T18:24:46.638Z,16.50
2017-10-01T18:27:14.888Z,16.60
2017-10-01T18:29:42.372Z,16.50
2017-10-01T18:32:10.627Z,16.50
2017-10-01T18:34:38.892Z,16.60
2017-10-01T18:37:06.391Z,16.50
2017-10-01T18:39:33.879Z,16.60
2017-10-01T18:42:01.388Z,16.60
2017-10-01T18:44:29.648Z,16.50
2017-10-01T18:46:57.128Z,16.50
2017-10-01T18:49:25.394Z,16.40
2017-10-01T18:51:52.891Z,16.40
2017-10-01T18:54:20.382Z,16.50
2017-10-01T18:56:47.872Z,16.40
2017-10-01T18:59:15.358Z,16.40
2017-10-01T19:01:42.852Z,16.40
2017-10-01T19:04:10.336Z,16.50
2017-10-01T19:06:37.826Z,16.40
2017-10-01T19:09:06.073Z,16.40
2017-10-01T19:11:33.560Z,16.30
2017-10-01T19:14:01.816Z,16.40
2017-10-01T19:16:29.297Z,16.30
2017-10-01T19:18:57.541Z,16.40
2017-10-01T19:21:25.027Z,16.40
2017-10-01T19:23:53.289Z,16.30
2017-10-01T19:26:20.769Z,16.30
2017-10-01T19:28:49.025Z,16.40
2017-10-01T19:31:16.540Z,16.30
2017-10-01T19:33:44.059Z,16.30
2017-10-01T19:36:12.322Z,16.40
2017-10-01T19:38:39.824Z,16.30
2017-10-01T19:41:07.320Z,16.40
2017-10-01T19:43:34.845Z,16.40
2017-10-01T19:46:02.338Z,16.30
2017-10-01T19:48:29.827Z,16.30
2017-10-01T19:50:58.083Z,16.30
2017-10-01T19:53:27.100Z,16.20
2017-10-01T19:55:55.365Z,16.30
2017-10-01T19:58:22.890Z,16.20
2017-10-01T20:00:50.400Z,16.30
2017-10-01T20:03:18.689Z,16.30
2017-10-01T20:05:46.937Z,16.30
2017-10-01T20:08:14.449Z,16.30
2017-10-01T20:10:41.930Z,16.40
2017-10-01T20:13:09.418Z,16.40
2017-10-01T20:15:37.831Z,16.40
2017-10-01T20:18:05.371Z,16.40
2017-10-01T20:20:34.383Z,16.40
2017-10-01T20:23:02.638Z,16.40
2017-10-01T20:25:30.981Z,16.40
2017-10-01T20:27:58.453Z,16.40
2017-10-01T20:30:25.942Z,16.40
2017-10-01T20:32:54.201Z,16.40
2017-10-01T20:35:21.699Z,16.30
2017-10-01T20:37:49.195Z,16.40
2017-10-01T20:40:16.691Z,16.40
2017-10-01T20:42:44.954Z,16.20
2017-10-01T20:45:12.439Z,16.20
2017-10-01T20:47:40.697Z,16.10
2017-10-01T20:50:08.172Z,16.10
2017-10-01T20:52:36.433Z,16.20
2017-10-01T20:55:03.927Z,16.20
2017-10-01T20:57:31.417Z,16.20
2017-10-01T20:59:58.909Z,16.10
2017-10-01T21:02:26.402Z,16.10
2017-10-01T21:04:53.909Z,16.20
2017-10-01T21:07:21.389Z,16.20
2017-10-01T21:09:48.871Z,16.10
2017-10-01T21:12:17.117Z,16.10
2017-10-01T21:14:44.618Z,16.00
2017-10-01T21:17:12.098Z,16.10
2017-10-01T21:19:39.587Z,16.10
2017-10-01T21:22:07.078Z,16.10
2017-10-01T21:24:35.330Z,16.10
2017-10-01T21:27:02.817Z,16.10
2017-10-01T21:29:31.069Z,16.10
2017-10-01T21:31:58.562Z,16.00
2017-10-01T21:34:26.055Z,16.10
2017-10-01T21:36:53.546Z,16.10
2017-10-01T21:39:21.021Z,16.10
2017-10-01T21:41:49.278Z,16.00
2017-10-01T21:44:16.779Z,16.00
2017-10-01T21:46:44.267Z,16.00
2017-10-01T21:49:11.759Z,16.10
2017-10-01T21:51:39.253Z,16.00
2017-10-01T21:54:06.747Z,16.00
2017-10-01T21:56:34.234Z,16.00
2017-10-01T21:59:01.717Z,16.00
2017-10-01T22:01:29.963Z,16.00
2017-10-01T22:03:58.227Z,16.00
2017-10-01T22:06:25.706Z,15.90
2017-10-01T22:08:53.215Z,16.00
2017-10-01T22:11:20.711Z,16.00
2017-10-01T22:13:48.190Z,16.00
2017-10-01T22:16:16.438Z,16.00
2017-10-01T22:18:43.925Z,15.90
2017-10-01T22:21:11.415Z,16.10
2017-10-01T22:23:38.905Z,16.00
2017-10-01T22:26:06.390Z,16.00
2017-10-01T22:28:33.869Z,16.00
2017-10-01T22:31:02.109Z,16.00
2017-10-01T22:33:29.597Z,15.90
2017-10-01T22:35:57.085Z,16.00
2017-10-01T22:38:24.577Z,16.00
2017-10-01T22:40:52.067Z,15.90
2017-10-01T22:43:19.557Z,16.00
2017-10-01T22:45:47.052Z,15.90
2017-10-01T22:48:14.549Z,16.00
2017-10-01T22:50:42.810Z,15.90
2017-10-01T22:53:10.295Z,15.80
2017-10-01T22:55:38.554Z,15.90
2017-10-01T22:58:06.039Z,15.90
2017-10-01T23:00:34.293Z,16.00
2017-10-01T23:03:01.791Z,15.90
2017-10-01T23:05:29.284Z,16.00
2017-10-01T23:07:56.760Z,16.00
2017-10-01T23:10:24.246Z,16.00
2017-10-01T23:12:52.514Z,15.90
2017-10-01T23:15:20.778Z,15.90
2017-10-01T23:17:48.306Z,15.80
2017-10-01T23:20:15.802Z,16.00
2017-10-01T23:22:43.290Z,16.10
2017-10-01T23:25:11.538Z,16.10
2017-10-01T23:27:39.017Z,16.10
2017-10-01T23:30:07.274Z,16.10
2017-10-01T23:32:34.757Z,16.00
2017-10-01T23:35:03.012Z,16.00
2017-10-01T23:37:30.530Z,15.90
2017-10-01T23:39:58.019Z,15.90
2017-10-01T23:42:27.009Z,15.90
2017-10-01T23:44:54.513Z,15.90
2017-10-01T23:47:22.757Z,16.00
2017-10-01T23:49:50.245Z,15.90
2017-10-01T23:52:18.484Z,16.00
2017-10-01T23:54:45.972Z,15.90
2017-10-01T23:57:14.228Z,15.90
2017-10-01T23:59:41.734Z,15.90
